createdAt,value
2018-12-15T00:02:18.809Z,11.87
2018-12-15T00:04:46.960Z,8.53
2018-12-15T00:07:15.146Z,12.57
2018-12-15T00:09:43.277Z,14.70
2018-12-15T00:12:11.464Z,8.17
2018-12-15T00:14:40.107Z,13.10
2018-12-15T00:17:08.222Z,23.67
2018-12-15T00:19:36.417Z,16.47
2018-12-15T00:22:04.772Z,23.73
2018-12-15T00:24:32.931Z,14.80
2018-12-15T00:27:01.249Z,22.97
2018-12-15T00:29:29.364Z,18.37
2018-12-15T00:31:57.460Z,17.10
2018-12-15T00:34:25.870Z,19.07
2018-12-15T00:36:54.005Z,16.97
2018-12-15T00:39:22.194Z,16.03
2018-12-15T00:41:50.698Z,20.00
2018-12-15T00:44:18.782Z,11.90
2018-12-15T00:46:47.148Z,22.17
2018-12-15T00:49:15.745Z,12.30
2018-12-15T00:51:43.880Z,19.43
2018-12-15T00:54:12.522Z,7.70
2018-12-15T00:56:40.677Z,6.53
2018-12-15T00:59:08.867Z,14.20
2018-12-15T01:01:37.025Z,14.50
2018-12-15T01:04:05.394Z,13.27
2018-12-15T01:06:33.542Z,7.57
2018-12-15T01:09:01.687Z,14.27
2018-12-15T01:11:29.869Z,15.63
2018-12-15T01:13:57.997Z,9.50
2018-12-15T01:16:26.157Z,20.80
2018-12-15T01:18:54.243Z,15.13
2018-12-15T01:21:22.322Z,18.77
2018-12-15T01:23:50.505Z,7.70
2018-12-15T01:26:18.741Z,11.40
2018-12-15T01:28:46.921Z,9.03
2018-12-15T01:31:15.281Z,11.70
2018-12-15T01:33:43.570Z,8.33
2018-12-15T01:36:11.793Z,14.53
2018-12-15T01:38:40.143Z,16.13
2018-12-15T01:41:08.443Z,2.93
2018-12-15T01:43:36.645Z,11.43
2018-12-15T01:46:05.881Z,16.13
2018-12-15T01:48:34.619Z,14.73
2018-12-15T01:51:02.877Z,15.77
2018-12-15T01:53:31.129Z,13.57
2018-12-15T01:55:59.690Z,19.07
2018-12-15T01:58:27.881Z,12.60
2018-12-15T02:00:56.035Z,20.80
2018-12-15T02:03:24.254Z,15.33
2018-12-15T02:05:52.402Z,17.23
2018-12-15T02:08:20.566Z,4.83
2018-12-15T02:10:48.943Z,17.33
2018-12-15T02:13:17.030Z,9.67
2018-12-15T02:15:45.213Z,12.80
2018-12-15T02:18:13.877Z,10.73
2018-12-15T02:20:42.066Z,11.47
2018-12-15T02:23:10.191Z,6.03
2018-12-15T02:25:38.491Z,14.03
2018-12-15T02:28:06.626Z,18.27
2018-12-15T02:30:34.796Z,15.03
2018-12-15T02:33:02.935Z,5.20
2018-12-15T02:35:31.105Z,14.83
2018-12-15T02:37:59.245Z,8.67
2018-12-15T02:40:27.419Z,14.03
2018-12-15T02:42:55.521Z,15.07
2018-12-15T02:45:23.607Z,10.97
2018-12-15T02:47:52.052Z,10.67
2018-12-15T02:50:20.367Z,3.87
2018-12-15T02:52:48.483Z,6.83
2018-12-15T02:55:16.881Z,16.90
2018-12-15T02:57:45.045Z,13.77
2018-12-15T03:00:13.188Z,11.17
2018-12-15T03:02:41.380Z,7.27
2018-12-15T03:05:09.493Z,4.13
2018-12-15T03:07:37.636Z,7.00
2018-12-15T03:10:06.263Z,4.40
2018-12-15T03:12:34.350Z,2.07
2018-12-15T03:15:02.522Z,7.13
2018-12-15T03:17:30.601Z,6.33
2018-12-15T03:20:01.241Z,5.33
2018-12-15T03:22:29.478Z,4.57
2018-12-15T03:24:57.598Z,9.30
2018-12-15T03:27:25.730Z,3.03
2018-12-15T03:29:54.221Z,1.80
2018-12-15T03:32:22.355Z,5.00
2018-12-15T03:34:50.487Z,6.47
2018-12-15T03:37:18.645Z,9.00
2018-12-15T03:39:46.775Z,5.50
2018-12-15T03:42:14.891Z,5.80
2018-12-15T03:44:43.317Z,6.90
2018-12-15T03:47:11.436Z,4.83
2018-12-15T03:49:39.602Z,2.90
2018-12-15T03:52:08.257Z,7.77
2018-12-15T03:54:36.406Z,6.00
2018-12-15T03:57:04.529Z,4.10
2018-12-15T03:59:32.932Z,5.90
2018-12-15T04:02:01.295Z,7.87
2018-12-15T04:04:30.550Z,10.77
2018-12-15T04:06:59.134Z,8.27
2018-12-15T04:09:27.252Z,8.73
2018-12-15T04:11:55.378Z,8.77
2018-12-15T04:14:23.678Z,9.43
2018-12-15T04:16:51.855Z,9.43
2018-12-15T04:19:20.024Z,7.53
2018-12-15T04:21:48.294Z,11.10
2018-12-15T04:24:17.244Z,11.10
2018-12-15T04:26:45.295Z,13.33
2018-12-15T04:29:13.657Z,12.37
2018-12-15T04:31:41.842Z,12.70
2018-12-15T04:34:10.103Z,11.77
2018-12-15T04:36:38.451Z,6.80
2018-12-15T04:39:06.541Z,11.20
2018-12-15T04:41:34.767Z,10.83
2018-12-15T04:44:04.303Z,11.80
2018-12-15T04:46:32.443Z,10.43
2018-12-15T04:49:00.601Z,8.57
2018-12-15T04:51:28.717Z,8.17
2018-12-15T04:53:56.977Z,13.40
2018-12-15T04:56:25.077Z,12.53
2018-12-15T04:58:53.249Z,11.80
2018-12-15T05:01:21.395Z,12.07
2018-12-15T05:03:49.701Z,13.60
2018-12-15T05:06:18.077Z,9.10
2018-12-15T05:08:46.209Z,9.43
2018-12-15T05:11:14.518Z,10.73
2018-12-15T05:13:42.838Z,14.37
2018-12-15T05:16:12.045Z,11.50
2018-12-15T05:18:40.369Z,14.37
2018-12-15T05:21:08.500Z,11.70
2018-12-15T05:23:36.759Z,10.60
2018-12-15T05:26:05.194Z,14.37
2018-12-15T05:28:33.277Z,8.33
2018-12-15T05:31:01.381Z,15.23
2018-12-15T05:33:29.521Z,2.77
2018-12-15T05:35:57.666Z,14.13
2018-12-15T05:38:26.001Z,6.13
2018-12-15T05:40:54.375Z,11.20
2018-12-15T05:43:22.565Z,14.07
2018-12-15T05:45:50.697Z,13.87
2018-12-15T05:48:24.958Z,15.67
2018-12-15T05:50:49.026Z,11.30
2018-12-15T05:53:17.142Z,15.57
2018-12-15T05:55:45.509Z,15.27
2018-12-15T05:58:13.589Z,11.90
2018-12-15T06:00:42.265Z,14.53
2018-12-15T06:03:10.397Z,11.13
2018-12-15T06:05:38.530Z,9.53
2018-12-15T06:08:06.812Z,15.57
2018-12-15T06:10:34.951Z,10.60
2018-12-15T06:13:03.053Z,10.50
2018-12-15T06:15:31.645Z,8.83
2018-12-15T06:17:59.772Z,14.40
2018-12-15T06:20:27.884Z,10.13
2018-12-15T06:22:56.177Z,13.27
2018-12-15T06:25:24.322Z,12.83
2018-12-15T06:27:52.447Z,16.60
2018-12-15T06:30:22.129Z,12.57
2018-12-15T06:32:50.349Z,13.90
2018-12-15T06:35:18.528Z,12.30
2018-12-15T06:37:46.769Z,18.10
2018-12-15T06:40:14.880Z,16.27
2018-12-15T06:42:42.984Z,15.97
2018-12-15T06:45:11.093Z,16.33
2018-12-15T06:47:39.293Z,16.60
2018-12-15T06:50:07.739Z,15.57
2018-12-15T06:52:35.760Z,19.70
2018-12-15T06:55:04.133Z,15.47
2018-12-15T06:57:32.576Z,15.93
2018-12-15T07:00:00.957Z,13.17
2018-12-15T07:02:29.062Z,14.43
2018-12-15T07:04:57.224Z,13.93
2018-12-15T07:07:25.310Z,9.07
2018-12-15T07:09:53.471Z,22.80
2018-12-15T07:12:21.781Z,18.37
2018-12-15T07:14:49.857Z,15.37
2018-12-15T07:17:17.972Z,17.70
2018-12-15T07:19:46.114Z,13.90
2018-12-15T07:22:14.217Z,12.60
2018-12-15T07:24:42.353Z,19.60
2018-12-15T07:27:11.024Z,14.13
2018-12-15T07:29:39.188Z,19.00
2018-12-15T07:32:07.301Z,18.07
2018-12-15T07:34:35.493Z,22.00
2018-12-15T07:37:03.760Z,15.63
2018-12-15T07:39:32.031Z,21.17
2018-12-15T07:42:00.371Z,19.63
2018-12-15T07:44:28.648Z,17.47
2018-12-15T07:46:56.929Z,17.00
2018-12-15T07:49:25.189Z,12.33
2018-12-15T07:51:53.458Z,16.77
2018-12-15T07:54:21.597Z,16.03
2018-12-15T07:56:49.762Z,18.80
2018-12-15T07:59:18.096Z,16.77
2018-12-15T08:01:46.244Z,16.57
2018-12-15T08:04:14.551Z,13.93
2018-12-15T08:06:42.662Z,16.30
2018-12-15T08:09:10.777Z,17.60
2018-12-15T08:11:44.787Z,17.10
2018-12-15T08:14:13.572Z,18.17
2018-12-15T08:16:41.818Z,12.40
2018-12-15T08:19:10.238Z,22.97
2018-12-15T08:21:38.534Z,16.37
2018-12-15T08:24:06.685Z,15.80
2018-12-15T08:26:35.012Z,14.57
2018-12-15T08:29:03.292Z,15.33
2018-12-15T08:31:31.520Z,20.97
2018-12-15T08:33:59.703Z,20.17
2018-12-15T08:36:27.914Z,13.03
2018-12-15T08:38:55.996Z,16.80
2018-12-15T08:41:24.188Z,17.47
2018-12-15T08:43:52.291Z,12.63
2018-12-15T08:46:20.489Z,7.63
2018-12-15T08:48:48.772Z,15.40
2018-12-15T08:51:17.329Z,11.47
2018-12-15T08:53:46.046Z,10.30
2018-12-15T08:56:14.169Z,11.80
2018-12-15T08:58:42.290Z,16.43
2018-12-15T09:01:10.586Z,16.10
2018-12-15T09:03:38.651Z,18.20
2018-12-15T09:06:06.756Z,13.43
2018-12-15T09:08:35.305Z,18.17
2018-12-15T09:11:03.409Z,12.40
2018-12-15T09:13:31.587Z,11.40
2018-12-15T09:15:59.685Z,12.60
2018-12-15T09:18:27.817Z,16.73
2018-12-15T09:20:55.992Z,13.53
2018-12-15T09:23:24.441Z,6.17
2018-12-15T09:25:52.621Z,13.70
2018-12-15T09:28:21.581Z,15.72
2018-12-15T09:30:50.052Z,11.70
2018-12-15T09:33:18.705Z,11.43
2018-12-15T09:35:47.459Z,16.30
2018-12-15T09:38:15.708Z,14.83
2018-12-15T09:40:44.165Z,16.53
2018-12-15T09:43:12.457Z,13.97
2018-12-15T09:45:40.734Z,12.40
2018-12-15T09:48:08.867Z,12.97
2018-12-15T09:50:36.989Z,19.83
2018-12-15T09:53:05.669Z,23.97
2018-12-15T09:55:33.788Z,20.73
2018-12-15T09:58:01.987Z,19.00
2018-12-15T10:00:31.262Z,15.60
2018-12-15T10:02:59.751Z,15.80
2018-12-15T10:05:29.962Z,16.77
2018-12-15T10:07:58.637Z,18.43
2018-12-15T10:10:26.797Z,18.53
2018-12-15T10:12:55.049Z,15.30
2018-12-15T10:15:23.146Z,14.63
2018-12-15T10:17:51.328Z,17.23
2018-12-15T10:20:19.666Z,14.93
2018-12-15T10:22:47.764Z,24.50
2018-12-15T10:25:16.018Z,12.93
2018-12-15T10:27:44.380Z,6.73
2018-12-15T10:30:17.976Z,13.87
2018-12-15T10:32:52.656Z,14.17
2018-12-15T10:35:21.209Z,18.67
2018-12-15T10:37:49.336Z,22.53
2018-12-15T10:40:17.655Z,9.87
2018-12-15T10:42:45.853Z,11.73
2018-12-15T10:45:13.962Z,19.07
2018-12-15T10:47:42.175Z,19.40
2018-12-15T10:50:11.273Z,15.97
2018-12-15T10:52:39.369Z,16.23
2018-12-15T10:55:09.233Z,18.10
2018-12-15T10:57:37.436Z,16.37
2018-12-15T11:00:13.133Z,21.73
2018-12-15T11:02:41.285Z,20.50
2018-12-15T11:05:09.660Z,21.63
2018-12-15T11:07:37.896Z,16.97
2018-12-15T11:10:06.005Z,17.03
2018-12-15T11:12:34.120Z,17.57
2018-12-15T11:15:02.745Z,21.10
2018-12-15T11:17:30.901Z,10.67
2018-12-15T11:19:59.070Z,17.37
2018-12-15T11:22:27.196Z,19.47
2018-12-15T11:24:55.351Z,9.87
2018-12-15T11:27:23.486Z,10.17
2018-12-15T11:29:51.769Z,19.97
2018-12-15T11:32:19.880Z,17.70
2018-12-15T11:34:47.985Z,27.40
2018-12-15T11:37:16.120Z,21.33
2018-12-15T11:39:44.228Z,20.43
2018-12-15T11:42:12.398Z,24.87
2018-12-15T11:44:41.042Z,29.50
2018-12-15T11:47:09.170Z,21.97
2018-12-15T11:49:43.476Z,17.37
2018-12-15T11:52:07.440Z,16.17
2018-12-15T11:54:35.764Z,19.27
2018-12-15T11:57:04.069Z,18.20
2018-12-15T11:59:32.548Z,20.10
2018-12-15T12:02:00.934Z,15.23
2018-12-15T12:04:29.048Z,22.67
2018-12-15T12:06:57.477Z,20.17
2018-12-15T12:09:25.596Z,7.87
2018-12-15T12:11:53.833Z,7.07
2018-12-15T12:14:21.961Z,15.33
2018-12-15T12:16:50.120Z,24.40
2018-12-15T12:19:18.233Z,15.77
2018-12-15T12:21:46.593Z,12.60
2018-12-15T12:24:14.704Z,23.03
2018-12-15T12:26:42.943Z,19.33
2018-12-15T12:29:11.213Z,16.57
2018-12-15T12:31:39.254Z,21.23
2018-12-15T12:34:07.376Z,20.63
2018-12-15T12:36:35.545Z,18.80
2018-12-15T12:39:05.033Z,25.17
2018-12-15T12:41:33.186Z,20.53
2018-12-15T12:44:01.292Z,22.07
2018-12-15T12:46:29.533Z,16.10
2018-12-15T12:48:57.843Z,14.00
2018-12-15T12:51:25.977Z,23.60
2018-12-15T12:53:54.090Z,22.87
2018-12-15T12:56:22.477Z,21.33
2018-12-15T12:58:50.668Z,25.30
2018-12-15T13:01:19.011Z,11.67
2018-12-15T13:03:47.530Z,21.00
2018-12-15T13:06:16.040Z,21.40
2018-12-15T13:08:45.618Z,8.03
2018-12-15T13:11:15.357Z,20.00
2018-12-15T13:13:43.618Z,24.47
2018-12-15T13:16:12.418Z,18.00
2018-12-15T13:18:40.810Z,18.67
2018-12-15T13:21:09.634Z,18.23
2018-12-15T13:23:38.341Z,21.43
2018-12-15T13:26:07.505Z,18.47
2018-12-15T13:28:35.965Z,20.63
2018-12-15T13:31:04.613Z,17.57
2018-12-15T13:33:35.617Z,19.47
2018-12-15T13:36:18.199Z,20.17
2018-12-15T13:38:46.711Z,22.33
2018-12-15T13:41:14.918Z,22.23
2018-12-15T13:43:43.203Z,21.10
2018-12-15T13:46:11.474Z,21.40
2018-12-15T13:48:39.548Z,13.37
2018-12-15T13:51:07.743Z,19.03
2018-12-15T13:53:35.901Z,17.77
2018-12-15T13:56:04.249Z,19.47
2018-12-15T13:58:32.350Z,13.87
2018-12-15T14:01:00.812Z,20.33
2018-12-15T14:03:28.921Z,24.23
2018-12-15T14:05:57.033Z,21.33
2018-12-15T14:08:25.397Z,24.07
2018-12-15T14:10:53.749Z,20.97
2018-12-15T14:13:21.862Z,21.73
2018-12-15T14:15:50.225Z,22.50
2018-12-15T14:18:18.289Z,20.90
2018-12-15T14:20:46.561Z,20.37
2018-12-15T14:23:14.755Z,24.67
2018-12-15T14:25:42.893Z,20.37
2018-12-15T14:28:11.042Z,21.13
2018-12-15T14:30:40.307Z,21.27
2018-12-15T14:33:08.566Z,23.37
2018-12-15T14:35:36.846Z,20.60
2018-12-15T14:38:05.770Z,20.20
2018-12-15T14:40:34.202Z,29.87
2018-12-15T14:43:03.217Z,22.77
2018-12-15T14:45:31.526Z,26.20
2018-12-15T14:48:00.438Z,19.37
2018-12-15T14:50:29.415Z,18.77
2018-12-15T14:52:57.582Z,20.47
2018-12-15T14:55:25.696Z,26.52
2018-12-15T14:57:53.989Z,20.03
2018-12-15T15:00:22.160Z,25.43
2018-12-15T15:02:50.357Z,29.07
2018-12-15T15:05:18.493Z,28.07
2018-12-15T15:07:47.090Z,25.03
2018-12-15T15:10:16.253Z,28.43
2018-12-15T15:12:44.479Z,31.77
2018-12-15T15:15:12.632Z,16.30
2018-12-15T15:17:40.853Z,27.63
2018-12-15T15:20:10.256Z,25.87
2018-12-15T15:22:38.913Z,29.03
2018-12-15T15:25:07.234Z,24.90
2018-12-15T15:27:35.354Z,23.03
2018-12-15T15:30:04.272Z,23.13
2018-12-15T15:32:32.382Z,28.33
2018-12-15T15:35:00.932Z,27.57
2018-12-15T15:37:29.057Z,21.83
2018-12-15T15:39:57.183Z,23.47
2018-12-15T15:42:25.340Z,19.00
2018-12-15T15:44:53.544Z,22.03
2018-12-15T15:47:21.865Z,24.97
2018-12-15T15:49:50.166Z,27.57
2018-12-15T15:52:18.288Z,19.47
2018-12-15T15:54:46.563Z,28.70
2018-12-15T15:57:14.663Z,18.33
2018-12-15T15:59:43.032Z,18.97
2018-12-15T16:02:11.145Z,29.23
2018-12-15T16:04:39.297Z,25.43
2018-12-15T16:07:07.378Z,29.27
2018-12-15T16:09:35.556Z,28.13
2018-12-15T16:12:03.664Z,25.40
2018-12-15T16:14:32.082Z,28.80
2018-12-15T16:17:00.198Z,15.30
2018-12-15T16:19:28.330Z,29.30
2018-12-15T16:21:56.713Z,29.37
2018-12-15T16:24:24.858Z,26.73
2018-12-15T16:26:52.962Z,23.00
2018-12-15T16:29:21.829Z,31.37
2018-12-15T16:31:50.614Z,26.67
2018-12-15T16:34:18.761Z,21.13
2018-12-15T16:36:47.176Z,34.40
2018-12-15T16:39:15.281Z,23.10
2018-12-15T16:41:43.438Z,23.43
2018-12-15T16:44:11.661Z,29.03
2018-12-15T16:46:39.772Z,33.60
2018-12-15T16:49:07.906Z,15.33
2018-12-15T16:51:36.111Z,16.90
2018-12-15T16:54:04.317Z,23.00
2018-12-15T16:56:32.468Z,21.33
2018-12-15T16:59:00.730Z,28.37
2018-12-15T17:01:28.849Z,23.37
2018-12-15T17:03:57.174Z,22.10
2018-12-15T17:06:25.510Z,26.77
2018-12-15T17:08:53.557Z,31.83
2018-12-15T17:11:22.394Z,38.80
2018-12-15T17:13:50.804Z,34.23
2018-12-15T17:16:19.173Z,30.57
2018-12-15T17:18:47.368Z,30.17
2018-12-15T17:21:15.741Z,31.20
2018-12-15T17:23:43.938Z,24.93
2018-12-15T17:26:12.101Z,31.47
2018-12-15T17:28:40.763Z,26.77
2018-12-15T17:31:08.934Z,30.27
2018-12-15T17:33:37.211Z,30.67
2018-12-15T17:36:05.801Z,26.93
2018-12-15T17:38:34.014Z,18.32
2018-12-15T17:41:02.356Z,10.57
2018-12-15T17:43:30.934Z,30.77
2018-12-15T17:45:59.499Z,23.83
2018-12-15T17:48:28.447Z,37.23
2018-12-15T17:51:03.109Z,19.03
2018-12-15T17:53:27.052Z,19.17
2018-12-15T17:55:55.540Z,40.80
2018-12-15T17:58:23.701Z,18.67
2018-12-15T18:00:52.102Z,26.47
2018-12-15T18:03:20.388Z,38.13
2018-12-15T18:05:48.689Z,16.90
2018-12-15T18:08:16.972Z,22.57
2018-12-15T18:10:45.264Z,20.60
2018-12-15T18:13:13.513Z,33.30
2018-12-15T18:15:41.632Z,38.33
2018-12-15T18:18:10.256Z,37.33
2018-12-15T18:20:38.453Z,32.93
2018-12-15T18:23:06.677Z,35.07
2018-12-15T18:25:34.944Z,38.97
2018-12-15T18:28:03.075Z,35.00
2018-12-15T18:30:31.201Z,36.70
2018-12-15T18:32:59.369Z,36.27
2018-12-15T18:35:27.517Z,38.10
2018-12-15T18:37:55.695Z,29.80
2018-12-15T18:40:24.155Z,27.67
2018-12-15T18:42:52.269Z,26.37
2018-12-15T18:45:20.388Z,32.07
2018-12-15T18:47:48.528Z,35.70
2018-12-15T18:50:16.637Z,37.73
2018-12-15T18:52:44.820Z,39.23
2018-12-15T18:55:13.209Z,29.70
2018-12-15T18:57:41.322Z,28.53
2018-12-15T19:00:13.419Z,34.37
2018-12-15T19:02:41.516Z,31.77
2018-12-15T19:05:09.613Z,17.97
2018-12-15T19:07:37.970Z,36.17
2018-12-15T19:10:06.484Z,36.47
2018-12-15T19:12:34.754Z,26.17
2018-12-15T19:15:03.804Z,30.40
2018-12-15T19:17:32.046Z,9.03
2018-12-15T19:20:00.398Z,24.30
2018-12-15T19:22:28.631Z,20.70
2018-12-15T19:24:56.913Z,32.27
2018-12-15T19:27:25.066Z,19.33
2018-12-15T19:29:53.172Z,23.37
2018-12-15T19:32:21.286Z,37.40
2018-12-15T19:34:52.363Z,18.60
2018-12-15T19:37:19.582Z,26.80
2018-12-15T19:39:47.809Z,16.93
2018-12-15T19:42:15.984Z,25.27
2018-12-15T19:44:45.002Z,39.97
2018-12-15T19:47:13.128Z,21.23
2018-12-15T19:49:41.272Z,28.40
2018-12-15T19:52:09.444Z,29.67
2018-12-15T19:54:37.593Z,39.08
2018-12-15T19:57:05.745Z,49.03
2018-12-15T19:59:34.225Z,40.53
2018-12-15T20:02:02.365Z,45.70
2018-12-15T20:04:30.495Z,32.53
2018-12-15T20:06:58.721Z,30.90
2018-12-15T20:09:26.814Z,35.00
2018-12-15T20:11:55.060Z,35.10
2018-12-15T20:14:23.101Z,32.97
2018-12-15T20:16:51.198Z,37.03
2018-12-15T20:19:19.343Z,30.30
2018-12-15T20:21:47.710Z,32.30
2018-12-15T20:24:15.912Z,41.27
2018-12-15T20:26:44.121Z,43.30
2018-12-15T20:29:12.409Z,44.07
2018-12-15T20:31:40.529Z,49.17
2018-12-15T20:34:08.619Z,50.60
2018-12-15T20:36:37.462Z,28.37
2018-12-15T20:39:06.975Z,39.97
2018-12-15T20:41:35.103Z,49.20
2018-12-15T20:44:03.202Z,31.43
2018-12-15T20:46:31.300Z,33.57
2018-12-15T20:48:59.480Z,31.93
2018-12-15T20:51:28.663Z,56.27
2018-12-15T20:53:56.855Z,37.37
2018-12-15T20:56:24.966Z,24.63
2018-12-15T20:58:53.028Z,30.33
2018-12-15T21:01:21.425Z,40.07
2018-12-15T21:03:49.819Z,47.50
2018-12-15T21:06:18.600Z,11.90
2018-12-15T21:08:47.096Z,41.20
2018-12-15T21:11:15.154Z,59.30
2018-12-15T21:13:43.481Z,41.87
2018-12-15T21:16:11.829Z,20.07
2018-12-15T21:18:40.312Z,45.80
2018-12-15T21:21:08.629Z,14.17
2018-12-15T21:23:37.396Z,39.47
2018-12-15T21:26:05.638Z,27.00
2018-12-15T21:28:33.781Z,32.13
2018-12-15T21:31:02.272Z,26.00
2018-12-15T21:33:30.509Z,52.20
2018-12-15T21:35:58.707Z,34.97
2018-12-15T21:38:26.864Z,44.60
2018-12-15T21:40:54.933Z,33.73
2018-12-15T21:43:23.070Z,40.30
2018-12-15T21:45:51.537Z,36.50
2018-12-15T21:48:19.666Z,47.13
2018-12-15T21:50:47.805Z,26.93
2018-12-15T21:53:16.342Z,32.77
2018-12-15T21:55:44.504Z,50.80
2018-12-15T21:58:12.624Z,41.70
2018-12-15T22:00:40.882Z,46.20
2018-12-15T22:03:09.015Z,15.10
2018-12-15T22:05:37.163Z,40.10
2018-12-15T22:08:05.298Z,27.53
2018-12-15T22:10:33.427Z,61.87
2018-12-15T22:13:01.591Z,30.20
2018-12-15T22:15:29.770Z,51.33
2018-12-15T22:17:57.837Z,49.47
2018-12-15T22:20:26.025Z,47.43
2018-12-15T22:22:54.270Z,49.20
2018-12-15T22:25:22.844Z,48.40
2018-12-15T22:27:51.030Z,49.97
2018-12-15T22:30:19.346Z,52.90
2018-12-15T22:32:47.509Z,46.00
2018-12-15T22:35:15.609Z,38.47
2018-12-15T22:37:43.829Z,42.60
2018-12-15T22:40:13.051Z,45.10
2018-12-15T22:42:41.370Z,37.23
2018-12-15T22:45:09.528Z,29.77
2018-12-15T22:47:37.587Z,42.40
2018-12-15T22:50:06.646Z,47.10
2018-12-15T22:52:34.845Z,40.40
2018-12-15T22:55:03.058Z,52.83
2018-12-15T22:57:31.228Z,41.03
2018-12-15T22:59:59.385Z,50.07
2018-12-15T23:02:28.398Z,30.00
2018-12-15T23:04:56.564Z,38.43
2018-12-15T23:07:24.813Z,31.60
2018-12-15T23:09:53.002Z,32.43
2018-12-15T23:12:21.152Z,53.67
2018-12-15T23:14:49.856Z,40.37
2018-12-15T23:17:17.973Z,36.10
2018-12-15T23:19:46.212Z,25.40
2018-12-15T23:22:16.466Z,45.43
2018-12-15T23:24:44.517Z,56.73
2018-12-15T23:27:12.989Z,45.17
2018-12-15T23:29:41.179Z,62.37
2018-12-15T23:32:09.375Z,42.63
2018-12-15T23:34:37.492Z,28.53
2018-12-15T23:37:05.641Z,40.53
2018-12-15T23:39:33.842Z,54.87
2018-12-15T23:42:02.008Z,46.07
2018-12-15T23:44:30.133Z,47.97
2018-12-15T23:46:58.306Z,14.33
2018-12-15T23:49:26.915Z,53.90
2018-12-15T23:51:55.230Z,53.37
2018-12-15T23:54:23.664Z,34.27
2018-12-15T23:56:52.049Z,34.73
2018-12-15T23:59:20.393Z,48.53
